Sapporo, Japan
Current Conditions -  °F | °C
As of 6:00 AM on Friday 21 Nov 2014 (Local Time) from RJCC Reporting Station
Broken Clouds Broken Clouds  
Wind Chill: 18°   Ceiling: 15000
Heat Index: 25°   Visibility: 6mi
Dew Point: 23°   Wind: 6mph
Humidity: 93%   Direction: 180°S
Pressure: 30.27"   Gusts: NA
Location:  43.07°N, 141.35°E
Report Text: RJCC 202100Z 18005KT 9999 FEW030 BKN150 M04/M05 Q1025 RMK 1SC030 7AC150 A3027
Loading
Personal Weather Stations






























Interactive Weather Map New forecast layout! Learn more

10-Day Weather Forecast

Advertisements
Track Severe Weather on mobile